Fairdale, New York
Current Conditions -  °F | °C
As of 2:54 AM on Friday 28 Nov 2014 (Local Time) from KFZY Reporting Station
Overcast Overcast  
Wind Chill: 25°   Ceiling: 5000
Heat Index: 25°   Visibility: 10mi
Dew Point: 19°   Wind: 3mph
Humidity: 78%   Direction: 300°WNW
Pressure: 30.1"   Gusts: NA
Location:  43.3091°N, 76.5484°W
Report Text: KFZY 280754Z AUTO 30003KT 10SM FEW028 BKN050 OVC070 M04/M07 A3010 RMK AO2 SLP200 T10391072
Loading
Personal Weather Stations






























Interactive Weather Map New forecast layout! Learn more

10-Day Weather Forecast

Advertisements
Track Severe Weather on mobile